White Oak, Ohio
Current Conditions -  °F | °C
As of 1:55 AM on Sunday 21 Dec 2014 (Local Time) from KI67 Reporting Station
Clear Clear  
Wind Chill: 27°   Ceiling: Unl
Heat Index: 27°   Visibility: 4mi
Dew Point: 27°   Wind: 3mph
Humidity: 100%   Direction: 50°NE
Pressure: 30.3"   Gusts: NA
Location:  39.2201°N, 84.6531°W
Report Text: KI67 210655Z AUTO 05003KT 4SM CLR M03/M03 A3030 RMK AO1
Loading
Personal Weather Stations






























Interactive Weather Map New forecast layout! Learn more

10-Day Weather Forecast

Advertisements
Track Severe Weather on mobile